| Date | Time | Temp. (oF) | Dew Point (oF) | Rel. Hum. (%) | Press. (in.) | Wind Dir. | Wind Speed (mph) | Hourly Rainfall (in.) |
|
|---|---|---|---|---|---|---|---|---|---|
| 1 | 10/16 | 00:00 | 42 | 38 | 87 | 30.23 | NE | 0 | 0.00 |
| 2 | 10/15 | 23:00 | 44 | 39 | 83 | 30.24 | E | 0 | 0.00 |
| 3 | 10/15 | 22:00 | 46 | 39 | 78 | 30.24 | ESE | 0 | 0.00 |
| 4 | 10/15 | 21:00 | 48 | 39 | 71 | 30.24 | ENE | 0 | 0.00 |
| 5 | 10/15 | 20:00 | 51 | 39 | 65 | 30.23 | ENE | 0 | 0.00 |
| 6 | 10/15 | 19:00 | 56 | 39 | 54 | 30.23 | ESE | 0 | 0.00 |
| 7 | 10/15 | 18:00 | 62 | 41 | 47 | 30.23 | E | 6 | 0.00 |
| 8 | 10/15 | 17:00 | 64 | 42 | 45 | 30.22 | E | 4 | 0.00 |
| 9 | 10/15 | 16:00 | 66 | 44 | 46 | 30.23 | ENE | 2 | 0.00 |
| 10 | 10/15 | 15:00 | 65 | 43 | 46 | 30.25 | E | 2 | 0.00 |
| 11 | 10/15 | 14:00 | 65 | 43 | 46 | 30.27 | E | 1 | 0.00 |
| 12 | 10/15 | 13:00 | 63 | 42 | 48 | 30.31 | E | 7 | 0.00 |
| 13 | 10/15 | 12:00 | 62 | 43 | 51 | 30.33 | E | 3 | 0.00 |
| 14 | 10/15 | 11:00 | 56 | 49 | 80 | 30.35 | SE | 0 | 0.00 |
| 15 | 10/15 | 10:00 | 46 | 44 | 94 | 30.35 | NNE | 0 | 0.00 |
| 16 | 10/15 | 09:00 | 39 | 39 | 100 | 30.36 | E | 0 | 0.00 |
| 17 | 10/15 | 08:00 | 35 | 34 | 99 | 30.34 | NE | 0 | 0.00 |
| 18 | 10/15 | 07:00 | 35 | 35 | 100 | 30.32 | E | 0 | 0.00 |
| 19 | 10/15 | 06:00 | 35 | 34 | 97 | 30.32 | SE | 0 | 0.00 |
| 20 | 10/15 | 05:00 | 36 | 34 | 96 | 30.31 | E | 0 | 0.00 |
| 21 | 10/15 | 04:00 | 36 | 34 | 95 | 30.29 | SE | 0 | 0.00 |
| 22 | 10/15 | 03:00 | 38 | 36 | 94 | 30.29 | SE | 0 | 0.00 |
| 23 | 10/15 | 02:00 | 39 | 37 | 93 | 30.30 | SE | 0 | 0.00 |
| 24 | 10/15 | 01:00 | 40 | 37 | 91 | 30.29 | ESE | 0 | 0.00 |